sensor_id;sensor_type;location;lat;lon;timestamp;P1;durP1;ratioP1;P2;durP2;ratioP2
21814;SDS011;11069;48.988;8.450;2022-10-22T00:01:10;11.90;;;1.73;;
21814;SDS011;11069;48.988;8.450;2022-10-22T00:03:36;6.72;;;1.95;;
21814;SDS011;11069;48.988;8.450;2022-10-22T00:06:04;4.75;;;2.00;;
21814;SDS011;11069;48.988;8.450;2022-10-22T00:08:30;5.13;;;1.38;;
21814;SDS011;11069;48.988;8.450;2022-10-22T00:10:56;10.35;;;2.15;;
21814;SDS011;11069;48.988;8.450;2022-10-22T00:13:22;5.80;;;1.77;;
21814;SDS011;11069;48.988;8.450;2022-10-22T00:15:48;8.38;;;1.60;;
21814;SDS011;11069;48.988;8.450;2022-10-22T00:18:13;6.68;;;1.38;;
21814;SDS011;11069;48.988;8.450;2022-10-22T00:20:39;5.05;;;1.90;;
21814;SDS011;11069;48.988;8.450;2022-10-22T00:23:04;8.70;;;1.67;;
21814;SDS011;11069;48.988;8.450;2022-10-22T00:25:30;12.27;;;1.85;;
21814;SDS011;11069;48.988;8.450;2022-10-22T00:27:59;9.40;;;2.08;;
21814;SDS011;11069;48.988;8.450;2022-10-22T00:30:25;7.38;;;1.70;;
21814;SDS011;11069;48.988;8.450;2022-10-22T00:32:50;4.28;;;1.40;;
21814;SDS011;11069;48.988;8.450;2022-10-22T00:35:16;2.50;;;1.33;;
21814;SDS011;11069;48.988;8.450;2022-10-22T00:37:42;5.55;;;1.90;;
21814;SDS011;11069;48.988;8.450;2022-10-22T00:40:07;3.90;;;1.67;;
21814;SDS011;11069;48.988;8.450;2022-10-22T00:42:34;5.63;;;1.42;;
21814;SDS011;11069;48.988;8.450;2022-10-22T00:45:04;6.60;;;1.50;;
21814;SDS011;11069;48.988;8.450;2022-10-22T00:47:35;3.22;;;1.30;;
21814;SDS011;11069;48.988;8.450;2022-10-22T00:50:05;3.53;;;1.50;;
21814;SDS011;11069;48.988;8.450;2022-10-22T00:52:35;4.55;;;1.30;;
21814;SDS011;11069;48.988;8.450;2022-10-22T00:55:01;3.67;;;1.30;;
21814;SDS011;11069;48.988;8.450;2022-10-22T00:57:27;4.53;;;1.25;;
21814;SDS011;11069;48.988;8.450;2022-10-22T00:59:53;2.38;;;1.27;;
21814;SDS011;11069;48.988;8.450;2022-10-22T01:02:19;3.25;;;1.48;;
21814;SDS011;11069;48.988;8.450;2022-10-22T01:04:45;5.05;;;1.27;;
21814;SDS011;11069;48.988;8.450;2022-10-22T01:07:15;7.47;;;1.30;;
21814;SDS011;11069;48.988;8.450;2022-10-22T01:15:49;4.78;;;1.45;;
21814;SDS011;11069;48.988;8.450;2022-10-22T01:21:14;7.72;;;1.30;;
21814;SDS011;11069;48.988;8.450;2022-10-22T01:29:23;3.22;;;1.27;;
21814;SDS011;11069;48.988;8.450;2022-10-22T01:32:16;4.78;;;1.27;;
21814;SDS011;11069;48.988;8.450;2022-10-22T01:34:47;7.65;;;1.20;;
21814;SDS011;11069;48.988;8.450;2022-10-22T01:37:16;9.10;;;1.42;;
21814;SDS011;11069;48.988;8.450;2022-10-22T01:39:44;4.60;;;1.17;;
21814;SDS011;11069;48.988;8.450;2022-10-22T01:42:12;4.97;;;0.90;;
21814;SDS011;11069;48.988;8.450;2022-10-22T01:44:38;4.80;;;1.20;;
21814;SDS011;11069;48.988;8.450;2022-10-22T01:47:14;6.35;;;1.05;;
21814;SDS011;11069;48.988;8.450;2022-10-22T01:55:32;2.60;;;1.00;;
21814;SDS011;11069;48.988;8.450;2022-10-22T01:58:14;4.72;;;1.00;;
21814;SDS011;11069;48.988;8.450;2022-10-22T02:00:49;6.22;;;1.48;;
21814;SDS011;11069;48.988;8.450;2022-10-22T02:04:04;2.45;;;1.10;;
21814;SDS011;11069;48.988;8.450;2022-10-22T02:06:46;2.25;;;0.90;;
21814;SDS011;11069;48.988;8.450;2022-10-22T02:09:16;3.53;;;0.95;;
21814;SDS011;11069;48.988;8.450;2022-10-22T02:11:44;4.15;;;1.10;;
21814;SDS011;11069;48.988;8.450;2022-10-22T02:14:13;6.80;;;1.38;;
21814;SDS011;11069;48.988;8.450;2022-10-22T02:16:42;2.33;;;1.02;;
21814;SDS011;11069;48.988;8.450;2022-10-22T02:19:12;3.38;;;1.10;;
21814;SDS011;11069;48.988;8.450;2022-10-22T02:21:49;3.40;;;1.00;;
21814;SDS011;11069;48.988;8.450;2022-10-22T02:24:15;4.40;;;1.00;;
21814;SDS011;11069;48.988;8.450;2022-10-22T02:26:43;3.30;;;1.13;;
21814;SDS011;11069;48.988;8.450;2022-10-22T02:29:12;2.67;;;1.02;;
21814;SDS011;11069;48.988;8.450;2022-10-22T02:31:41;2.38;;;1.20;;
21814;SDS011;11069;48.988;8.450;2022-10-22T02:34:11;2.15;;;0.90;;
21814;SDS011;11069;48.988;8.450;2022-10-22T02:36:42;4.30;;;0.93;;
21814;SDS011;11069;48.988;8.450;2022-10-22T02:39:08;5.03;;;1.40;;
21814;SDS011;11069;48.988;8.450;2022-10-22T02:41:35;3.40;;;1.15;;
21814;SDS011;11069;48.988;8.450;2022-10-22T02:44:05;2.15;;;1.20;;
21814;SDS011;11069;48.988;8.450;2022-10-22T02:46:33;6.30;;;1.17;;
21814;SDS011;11069;48.988;8.450;2022-10-22T02:48:59;4.13;;;1.40;;
21814;SDS011;11069;48.988;8.450;2022-10-22T02:51:24;8.82;;;1.30;;
21814;SDS011;11069;48.988;8.450;2022-10-22T02:53:50;3.67;;;1.30;;
21814;SDS011;11069;48.988;8.450;2022-10-22T02:56:15;4.13;;;1.35;;
21814;SDS011;11069;48.988;8.450;2022-10-22T02:58:41;4.13;;;1.15;;
21814;SDS011;11069;48.988;8.450;2022-10-22T03:01:07;5.03;;;1.10;;
21814;SDS011;11069;48.988;8.450;2022-10-22T03:03:33;3.92;;;1.20;;
21814;SDS011;11069;48.988;8.450;2022-10-22T03:05:58;2.15;;;1.25;;
21814;SDS011;11069;48.988;8.450;2022-10-22T03:08:24;3.47;;;1.38;;
21814;SDS011;11069;48.988;8.450;2022-10-22T03:10:49;5.35;;;1.33;;
21814;SDS011;11069;48.988;8.450;2022-10-22T03:13:15;2.08;;;1.02;;
21814;SDS011;11069;48.988;8.450;2022-10-22T03:15:40;3.40;;;1.40;;
21814;SDS011;11069;48.988;8.450;2022-10-22T03:18:06;6.15;;;1.17;;
21814;SDS011;11069;48.988;8.450;2022-10-22T03:20:32;3.85;;;1.45;;
21814;SDS011;11069;48.988;8.450;2022-10-22T03:22:57;2.28;;;1.10;;
21814;SDS011;11069;48.988;8.450;2022-10-22T03:25:24;3.55;;;1.30;;
21814;SDS011;11069;48.988;8.450;2022-10-22T03:27:51;4.80;;;1.58;;
21814;SDS011;11069;48.988;8.450;2022-10-22T03:30:19;1.38;;;1.00;;
21814;SDS011;11069;48.988;8.450;2022-10-22T03:32:45;4.22;;;1.25;;
21814;SDS011;11069;48.988;8.450;2022-10-22T03:35:14;4.55;;;1.10;;
21814;SDS011;11069;48.988;8.450;2022-10-22T03:37:39;8.48;;;1.85;;
21814;SDS011;11069;48.988;8.450;2022-10-22T03:40:05;3.95;;;1.30;;
21814;SDS011;11069;48.988;8.450;2022-10-22T03:42:32;4.60;;;1.48;;
21814;SDS011;11069;48.988;8.450;2022-10-22T03:44:58;7.82;;;1.70;;
21814;SDS011;11069;48.988;8.450;2022-10-22T03:47:23;2.70;;;1.13;;
21814;SDS011;11069;48.988;8.450;2022-10-22T03:49:50;4.05;;;1.40;;
21814;SDS011;11069;48.988;8.450;2022-10-22T03:52:16;5.40;;;1.30;;
21814;SDS011;11069;48.988;8.450;2022-10-22T03:54:42;4.80;;;1.50;;
21814;SDS011;11069;48.988;8.450;2022-10-22T03:57:08;4.18;;;1.45;;
21814;SDS011;11069;48.988;8.450;2022-10-22T03:59:34;5.65;;;1.42;;
21814;SDS011;11069;48.988;8.450;2022-10-22T04:02:00;2.75;;;1.50;;
21814;SDS011;11069;48.988;8.450;2022-10-22T04:04:26;5.57;;;1.60;;
21814;SDS011;11069;48.988;8.450;2022-10-22T04:06:52;4.10;;;1.38;;
21814;SDS011;11069;48.988;8.450;2022-10-22T04:09:17;7.20;;;1.83;;
21814;SDS011;11069;48.988;8.450;2022-10-22T04:11:43;6.35;;;1.73;;
21814;SDS011;11069;48.988;8.450;2022-10-22T04:14:08;8.07;;;1.77;;
21814;SDS011;11069;48.988;8.450;2022-10-22T04:16:35;6.60;;;1.58;;
21814;SDS011;11069;48.988;8.450;2022-10-22T04:19:04;3.25;;;1.73;;
21814;SDS011;11069;48.988;8.450;2022-10-22T04:21:30;7.00;;;2.00;;
21814;SDS011;11069;48.988;8.450;2022-10-22T04:23:56;3.08;;;1.80;;
21814;SDS011;11069;48.988;8.450;2022-10-22T04:26:21;4.45;;;1.70;;
21814;SDS011;11069;48.988;8.450;2022-10-22T04:28:48;6.22;;;1.40;;
21814;SDS011;11069;48.988;8.450;2022-10-22T04:31:15;6.03;;;1.50;;
21814;SDS011;11069;48.988;8.450;2022-10-22T04:33:42;5.63;;;1.73;;
21814;SDS011;11069;48.988;8.450;2022-10-22T04:36:09;5.40;;;1.77;;
21814;SDS011;11069;48.988;8.450;2022-10-22T04:38:40;2.55;;;1.60;;
21814;SDS011;11069;48.988;8.450;2022-10-22T04:41:17;8.45;;;1.85;;
21814;SDS011;11069;48.988;8.450;2022-10-22T04:43:45;5.20;;;1.77;;
21814;SDS011;11069;48.988;8.450;2022-10-22T04:46:13;5.25;;;1.88;;
21814;SDS011;11069;48.988;8.450;2022-10-22T04:48:40;7.40;;;2.00;;
21814;SDS011;11069;48.988;8.450;2022-10-22T04:51:09;5.90;;;2.00;;
21814;SDS011;11069;48.988;8.450;2022-10-22T04:53:36;4.55;;;1.90;;
21814;SDS011;11069;48.988;8.450;2022-10-22T04:56:15;5.20;;;2.30;;
21814;SDS011;11069;48.988;8.450;2022-10-22T04:58:56;3.92;;;2.17;;
21814;SDS011;11069;48.988;8.450;2022-10-22T05:01:27;4.57;;;2.30;;
21814;SDS011;11069;48.988;8.450;2022-10-22T05:03:58;7.32;;;2.33;;
21814;SDS011;11069;48.988;8.450;2022-10-22T05:06:26;3.85;;;1.90;;
21814;SDS011;11069;48.988;8.450;2022-10-22T05:08:54;6.53;;;2.50;;
21814;SDS011;11069;48.988;8.450;2022-10-22T05:11:22;6.38;;;2.20;;
21814;SDS011;11069;48.988;8.450;2022-10-22T05:13:49;4.00;;;2.30;;
21814;SDS011;11069;48.988;8.450;2022-10-22T05:16:15;6.43;;;1.90;;
21814;SDS011;11069;48.988;8.450;2022-10-22T05:18:42;3.42;;;1.90;;
21814;SDS011;11069;48.988;8.450;2022-10-22T05:21:09;6.95;;;2.40;;
21814;SDS011;11069;48.988;8.450;2022-10-22T05:23:39;7.97;;;2.92;;
21814;SDS011;11069;48.988;8.450;2022-10-22T05:26:06;3.17;;;2.40;;
21814;SDS011;11069;48.988;8.450;2022-10-22T05:28:33;7.05;;;2.80;;
21814;SDS011;11069;48.988;8.450;2022-10-22T05:31:00;4.60;;;3.08;;
21814;SDS011;11069;48.988;8.450;2022-10-22T05:33:28;4.80;;;3.00;;
21814;SDS011;11069;48.988;8.450;2022-10-22T05:35:54;8.23;;;3.10;;
21814;SDS011;11069;48.988;8.450;2022-10-22T05:38:21;9.60;;;3.50;;
21814;SDS011;11069;48.988;8.450;2022-10-22T05:40:47;5.88;;;3.45;;
21814;SDS011;11069;48.988;8.450;2022-10-22T05:43:12;6.07;;;2.92;;
21814;SDS011;11069;48.988;8.450;2022-10-22T05:45:38;9.35;;;3.47;;
21814;SDS011;11069;48.988;8.450;2022-10-22T05:48:05;4.57;;;3.58;;
21814;SDS011;11069;48.988;8.450;2022-10-22T05:50:34;6.78;;;3.50;;
21814;SDS011;11069;48.988;8.450;2022-10-22T05:53:00;5.82;;;3.13;;
21814;SDS011;11069;48.988;8.450;2022-10-22T05:55:26;6.57;;;3.45;;
21814;SDS011;11069;48.988;8.450;2022-10-22T05:57:51;6.05;;;2.78;;
21814;SDS011;11069;48.988;8.450;2022-10-22T06:00:17;6.50;;;2.95;;
21814;SDS011;11069;48.988;8.450;2022-10-22T06:02:42;8.07;;;3.50;;
21814;SDS011;11069;48.988;8.450;2022-10-22T06:05:08;8.07;;;3.38;;
21814;SDS011;11069;48.988;8.450;2022-10-22T06:07:33;9.05;;;3.28;;
21814;SDS011;11069;48.988;8.450;2022-10-22T06:10:00;4.90;;;3.33;;
21814;SDS011;11069;48.988;8.450;2022-10-22T06:12:26;5.93;;;2.80;;
21814;SDS011;11069;48.988;8.450;2022-10-22T06:14:51;6.43;;;3.20;;
21814;SDS011;11069;48.988;8.450;2022-10-22T06:17:17;6.82;;;3.20;;
21814;SDS011;11069;48.988;8.450;2022-10-22T06:19:44;9.05;;;3.15;;
21814;SDS011;11069;48.988;8.450;2022-10-22T06:22:09;5.18;;;3.58;;
21814;SDS011;11069;48.988;8.450;2022-10-22T06:24:35;5.32;;;3.10;;
21814;SDS011;11069;48.988;8.450;2022-10-22T06:27:01;6.93;;;3.00;;
21814;SDS011;11069;48.988;8.450;2022-10-22T06:29:27;5.68;;;3.00;;
21814;SDS011;11069;48.988;8.450;2022-10-22T06:31:52;7.15;;;2.70;;
21814;SDS011;11069;48.988;8.450;2022-10-22T06:34:18;6.88;;;2.65;;
21814;SDS011;11069;48.988;8.450;2022-10-22T06:36:44;6.03;;;3.28;;
21814;SDS011;11069;48.988;8.450;2022-10-22T06:39:11;5.15;;;2.85;;
21814;SDS011;11069;48.988;8.450;2022-10-22T06:41:37;6.25;;;2.78;;
21814;SDS011;11069;48.988;8.450;2022-10-22T06:44:03;8.55;;;3.95;;
21814;SDS011;11069;48.988;8.450;2022-10-22T06:46:29;3.00;;;2.75;;
21814;SDS011;11069;48.988;8.450;2022-10-22T06:48:56;3.45;;;2.88;;
21814;SDS011;11069;48.988;8.450;2022-10-22T06:51:24;4.60;;;3.00;;
21814;SDS011;11069;48.988;8.450;2022-10-22T06:53:51;3.75;;;2.80;;
21814;SDS011;11069;48.988;8.450;2022-10-22T06:56:19;4.80;;;2.85;;
21814;SDS011;11069;48.988;8.450;2022-10-22T06:58:49;8.32;;;2.90;;
21814;SDS011;11069;48.988;8.450;2022-10-22T07:01:17;3.60;;;2.80;;
21814;SDS011;11069;48.988;8.450;2022-10-22T07:03:44;5.80;;;3.10;;
21814;SDS011;11069;48.988;8.450;2022-10-22T07:06:10;5.07;;;3.00;;
21814;SDS011;11069;48.988;8.450;2022-10-22T07:08:37;7.60;;;3.33;;
21814;SDS011;11069;48.988;8.450;2022-10-22T07:11:04;4.75;;;2.85;;
21814;SDS011;11069;48.988;8.450;2022-10-22T07:13:31;5.50;;;3.20;;
21814;SDS011;11069;48.988;8.450;2022-10-22T07:15:57;4.10;;;3.05;;
21814;SDS011;11069;48.988;8.450;2022-10-22T07:18:22;8.85;;;2.90;;
21814;SDS011;11069;48.988;8.450;2022-10-22T07:20:48;3.25;;;2.92;;
21814;SDS011;11069;48.988;8.450;2022-10-22T07:23:14;7.72;;;2.70;;
21814;SDS011;11069;48.988;8.450;2022-10-22T07:25:40;3.10;;;2.55;;
21814;SDS011;11069;48.988;8.450;2022-10-22T07:28:06;7.50;;;2.47;;
21814;SDS011;11069;48.988;8.450;2022-10-22T07:30:32;4.75;;;2.90;;
21814;SDS011;11069;48.988;8.450;2022-10-22T07:32:58;6.55;;;2.83;;
21814;SDS011;11069;48.988;8.450;2022-10-22T07:35:24;6.10;;;2.80;;
21814;SDS011;11069;48.988;8.450;2022-10-22T07:37:50;5.45;;;2.72;;
21814;SDS011;11069;48.988;8.450;2022-10-22T07:40:15;8.38;;;2.53;;
21814;SDS011;11069;48.988;8.450;2022-10-22T07:42:41;8.13;;;2.08;;
21814;SDS011;11069;48.988;8.450;2022-10-22T07:45:07;3.20;;;1.83;;
21814;SDS011;11069;48.988;8.450;2022-10-22T07:47:33;3.35;;;1.88;;
21814;SDS011;11069;48.988;8.450;2022-10-22T07:49:58;1.95;;;1.50;;
21814;SDS011;11069;48.988;8.450;2022-10-22T07:52:24;4.65;;;1.42;;
21814;SDS011;11069;48.988;8.450;2022-10-22T07:54:50;2.83;;;1.20;;
21814;SDS011;11069;48.988;8.450;2022-10-22T07:57:15;3.70;;;1.10;;
21814;SDS011;11069;48.988;8.450;2022-10-22T07:59:41;1.23;;;1.10;;
21814;SDS011;11069;48.988;8.450;2022-10-22T08:02:06;4.47;;;1.30;;
21814;SDS011;11069;48.988;8.450;2022-10-22T08:04:33;1.42;;;1.10;;
21814;SDS011;11069;48.988;8.450;2022-10-22T08:06:59;4.35;;;1.17;;
21814;SDS011;11069;48.988;8.450;2022-10-22T08:09:25;2.05;;;0.88;;
21814;SDS011;11069;48.988;8.450;2022-10-22T08:11:50;1.10;;;0.90;;
21814;SDS011;11069;48.988;8.450;2022-10-22T08:14:16;4.07;;;1.00;;
21814;SDS011;11069;48.988;8.450;2022-10-22T08:16:41;3.85;;;1.05;;
21814;SDS011;11069;48.988;8.450;2022-10-22T08:19:07;2.97;;;1.00;;
21814;SDS011;11069;48.988;8.450;2022-10-22T08:21:33;1.35;;;0.95;;
21814;SDS011;11069;48.988;8.450;2022-10-22T08:23:58;3.00;;;1.10;;
21814;SDS011;11069;48.988;8.450;2022-10-22T08:26:24;3.88;;;0.90;;
21814;SDS011;11069;48.988;8.450;2022-10-22T08:28:49;2.03;;;1.00;;
21814;SDS011;11069;48.988;8.450;2022-10-22T08:31:15;2.65;;;1.35;;
21814;SDS011;11069;48.988;8.450;2022-10-22T08:33:40;2.75;;;0.90;;
21814;SDS011;11069;48.988;8.450;2022-10-22T08:36:07;5.60;;;1.05;;
21814;SDS011;11069;48.988;8.450;2022-10-22T08:38:33;5.65;;;1.02;;
21814;SDS011;11069;48.988;8.450;2022-10-22T08:41:16;3.70;;;0.85;;
21814;SDS011;11069;48.988;8.450;2022-10-22T08:48:54;2.72;;;0.95;;
21814;SDS011;11069;48.988;8.450;2022-10-22T08:51:26;2.17;;;1.17;;
21814;SDS011;11069;48.988;8.450;2022-10-22T08:56:40;4.78;;;1.42;;
21814;SDS011;11069;48.988;8.450;2022-10-22T08:59:25;5.00;;;1.20;;
21814;SDS011;11069;48.988;8.450;2022-10-22T09:01:58;2.17;;;1.30;;
21814;SDS011;11069;48.988;8.450;2022-10-22T09:04:41;1.58;;;1.02;;
21814;SDS011;11069;48.988;8.450;2022-10-22T09:07:13;2.30;;;1.10;;
21814;SDS011;11069;48.988;8.450;2022-10-22T09:09:41;5.15;;;1.30;;
21814;SDS011;11069;48.988;8.450;2022-10-22T09:12:13;2.40;;;1.20;;
21814;SDS011;11069;48.988;8.450;2022-10-22T09:14:40;3.30;;;1.38;;
21814;SDS011;11069;48.988;8.450;2022-10-22T09:19:46;5.53;;;1.48;;
21814;SDS011;11069;48.988;8.450;2022-10-22T09:22:45;2.78;;;1.30;;
21814;SDS011;11069;48.988;8.450;2022-10-22T09:27:52;2.60;;;1.02;;
21814;SDS011;11069;48.988;8.450;2022-10-22T09:30:22;4.43;;;0.93;;
21814;SDS011;11069;48.988;8.450;2022-10-22T09:35:32;5.45;;;1.40;;
21814;SDS011;11069;48.988;8.450;2022-10-22T09:38:07;3.65;;;1.20;;
21814;SDS011;11069;48.988;8.450;2022-10-22T09:40:43;3.50;;;1.10;;
21814;SDS011;11069;48.988;8.450;2022-10-22T09:43:12;3.92;;;1.30;;
21814;SDS011;11069;48.988;8.450;2022-10-22T09:45:39;2.55;;;1.15;;
21814;SDS011;11069;48.988;8.450;2022-10-22T09:48:15;3.13;;;1.10;;
21814;SDS011;11069;48.988;8.450;2022-10-22T09:53:18;2.13;;;0.90;;
21814;SDS011;11069;48.988;8.450;2022-10-22T09:55:54;1.73;;;1.10;;
21814;SDS011;11069;48.988;8.450;2022-10-22T09:58:25;2.08;;;0.90;;
21814;SDS011;11069;48.988;8.450;2022-10-22T10:01:00;1.75;;;1.00;;
21814;SDS011;11069;48.988;8.450;2022-10-22T10:03:27;3.95;;;1.00;;
21814;SDS011;11069;48.988;8.450;2022-10-22T10:05:56;1.27;;;0.90;;
21814;SDS011;11069;48.988;8.450;2022-10-22T10:08:23;2.08;;;0.80;;
21814;SDS011;11069;48.988;8.450;2022-10-22T10:10:58;3.42;;;1.10;;
21814;SDS011;11069;48.988;8.450;2022-10-22T10:16:06;2.47;;;0.90;;
21814;SDS011;11069;48.988;8.450;2022-10-22T10:18:49;5.97;;;0.98;;
21814;SDS011;11069;48.988;8.450;2022-10-22T10:27:47;3.10;;;1.00;;
21814;SDS011;11069;48.988;8.450;2022-10-22T10:30:35;3.17;;;0.90;;
21814;SDS011;11069;48.988;8.450;2022-10-22T10:33:50;2.42;;;0.95;;
21814;SDS011;11069;48.988;8.450;2022-10-22T10:41:18;1.85;;;0.90;;
21814;SDS011;11069;48.988;8.450;2022-10-22T10:51:37;2.55;;;1.10;;
21814;SDS011;11069;48.988;8.450;2022-10-22T10:56:52;2.83;;;0.95;;
21814;SDS011;11069;48.988;8.450;2022-10-22T11:07:19;4.00;;;1.35;;
21814;SDS011;11069;48.988;8.450;2022-10-22T11:09:59;4.75;;;1.20;;
21814;SDS011;11069;48.988;8.450;2022-10-22T11:12:44;4.40;;;1.48;;
21814;SDS011;11069;48.988;8.450;2022-10-22T11:18:05;4.07;;;1.02;;
21814;SDS011;11069;48.988;8.450;2022-10-22T11:21:05;6.43;;;1.17;;
21814;SDS011;11069;48.988;8.450;2022-10-22T11:23:35;3.85;;;1.20;;
21814;SDS011;11069;48.988;8.450;2022-10-22T11:26:08;3.22;;;1.15;;
21814;SDS011;11069;48.988;8.450;2022-10-22T11:28:56;4.85;;;1.10;;
21814;SDS011;11069;48.988;8.450;2022-10-22T11:31:25;4.60;;;1.15;;
21814;SDS011;11069;48.988;8.450;2022-10-22T11:34:05;4.32;;;1.10;;
21814;SDS011;11069;48.988;8.450;2022-10-22T11:36:40;4.60;;;1.20;;
21814;SDS011;11069;48.988;8.450;2022-10-22T11:39:13;3.42;;;1.33;;
21814;SDS011;11069;48.988;8.450;2022-10-22T11:41:56;8.18;;;1.20;;
21814;SDS011;11069;48.988;8.450;2022-10-22T11:44:23;5.50;;;1.25;;
21814;SDS011;11069;48.988;8.450;2022-10-22T11:46:57;4.90;;;1.10;;
21814;SDS011;11069;48.988;8.450;2022-10-22T11:49:43;3.20;;;1.27;;
21814;SDS011;11069;48.988;8.450;2022-10-22T11:55:00;4.63;;;1.40;;
21814;SDS011;11069;48.988;8.450;2022-10-22T11:57:28;5.15;;;1.33;;
21814;SDS011;11069;48.988;8.450;2022-10-22T12:00:06;4.00;;;1.40;;
21814;SDS011;11069;48.988;8.450;2022-10-22T12:02:39;4.35;;;1.27;;
21814;SDS011;11069;48.988;8.450;2022-10-22T12:10:15;6.25;;;1.10;;
21814;SDS011;11069;48.988;8.450;2022-10-22T12:12:44;6.72;;;1.40;;
21814;SDS011;11069;48.988;8.450;2022-10-22T12:15:25;9.15;;;1.50;;
21814;SDS011;11069;48.988;8.450;2022-10-22T12:18:01;5.30;;;1.23;;
21814;SDS011;11069;48.988;8.450;2022-10-22T12:20:29;9.13;;;1.67;;
21814;SDS011;11069;48.988;8.450;2022-10-22T12:22:56;6.53;;;1.40;;
21814;SDS011;11069;48.988;8.450;2022-10-22T12:25:23;6.65;;;1.50;;
21814;SDS011;11069;48.988;8.450;2022-10-22T12:27:54;7.18;;;1.58;;
21814;SDS011;11069;48.988;8.450;2022-10-22T12:32:48;8.30;;;1.42;;
21814;SDS011;11069;48.988;8.450;2022-10-22T12:35:21;6.22;;;1.17;;
21814;SDS011;11069;48.988;8.450;2022-10-22T12:37:50;4.85;;;1.30;;
21814;SDS011;11069;48.988;8.450;2022-10-22T12:40:18;6.20;;;1.40;;
21814;SDS011;11069;48.988;8.450;2022-10-22T12:42:47;2.60;;;1.30;;
21814;SDS011;11069;48.988;8.450;2022-10-22T12:45:14;3.45;;;1.10;;
21814;SDS011;11069;48.988;8.450;2022-10-22T12:47:43;4.28;;;1.27;;
21814;SDS011;11069;48.988;8.450;2022-10-22T12:50:14;4.20;;;1.30;;
21814;SDS011;11069;48.988;8.450;2022-10-22T12:52:43;9.30;;;1.45;;
21814;SDS011;11069;48.988;8.450;2022-10-22T12:55:13;3.55;;;1.33;;
21814;SDS011;11069;48.988;8.450;2022-10-22T12:57:40;6.88;;;1.40;;
21814;SDS011;11069;48.988;8.450;2022-10-22T13:00:17;6.05;;;1.60;;
21814;SDS011;11069;48.988;8.450;2022-10-22T13:02:49;3.88;;;1.48;;
21814;SDS011;11069;48.988;8.450;2022-10-22T13:07:48;6.30;;;1.17;;
21814;SDS011;11069;48.988;8.450;2022-10-22T13:12:55;6.65;;;1.50;;
21814;SDS011;11069;48.988;8.450;2022-10-22T13:20:27;2.90;;;1.20;;
21814;SDS011;11069;48.988;8.450;2022-10-22T13:25:39;4.13;;;1.25;;
21814;SDS011;11069;48.988;8.450;2022-10-22T13:30:49;4.38;;;1.30;;
21814;SDS011;11069;48.988;8.450;2022-10-22T13:35:50;4.72;;;1.13;;
21814;SDS011;11069;48.988;8.450;2022-10-22T13:38:19;2.88;;;1.20;;
21814;SDS011;11069;48.988;8.450;2022-10-22T13:40:46;3.28;;;1.35;;
21814;SDS011;11069;48.988;8.450;2022-10-22T13:43:12;2.75;;;1.30;;
21814;SDS011;11069;48.988;8.450;2022-10-22T13:45:38;4.50;;;1.38;;
21814;SDS011;11069;48.988;8.450;2022-10-22T13:48:04;2.65;;;1.05;;
21814;SDS011;11069;48.988;8.450;2022-10-22T13:50:30;4.93;;;1.10;;
21814;SDS011;11069;48.988;8.450;2022-10-22T13:52:56;4.53;;;1.13;;
21814;SDS011;11069;48.988;8.450;2022-10-22T13:55:26;4.10;;;1.10;;
21814;SDS011;11069;48.988;8.450;2022-10-22T13:57:57;4.50;;;1.10;;
21814;SDS011;11069;48.988;8.450;2022-10-22T14:00:35;3.28;;;0.93;;
21814;SDS011;11069;48.988;8.450;2022-10-22T14:03:02;3.35;;;1.05;;
21814;SDS011;11069;48.988;8.450;2022-10-22T14:05:29;3.92;;;1.42;;
21814;SDS011;11069;48.988;8.450;2022-10-22T14:07:57;4.32;;;1.38;;
21814;SDS011;11069;48.988;8.450;2022-10-22T14:10:24;5.18;;;1.17;;
21814;SDS011;11069;48.988;8.450;2022-10-22T14:12:50;4.80;;;1.35;;
21814;SDS011;11069;48.988;8.450;2022-10-22T14:15:17;3.55;;;1.20;;
21814;SDS011;11069;48.988;8.450;2022-10-22T14:17:45;4.32;;;1.20;;
21814;SDS011;11069;48.988;8.450;2022-10-22T14:20:17;3.33;;;1.20;;
21814;SDS011;11069;48.988;8.450;2022-10-22T14:22:48;3.92;;;1.38;;
21814;SDS011;11069;48.988;8.450;2022-10-22T14:25:15;4.93;;;1.45;;
21814;SDS011;11069;48.988;8.450;2022-10-22T14:27:42;4.72;;;1.60;;
21814;SDS011;11069;48.988;8.450;2022-10-22T14:30:12;3.53;;;1.23;;
21814;SDS011;11069;48.988;8.450;2022-10-22T14:32:45;2.92;;;1.15;;
21814;SDS011;11069;48.988;8.450;2022-10-22T14:35:13;5.88;;;1.50;;
21814;SDS011;11069;48.988;8.450;2022-10-22T14:37:41;5.55;;;1.33;;
21814;SDS011;11069;48.988;8.450;2022-10-22T14:40:07;3.03;;;1.10;;
21814;SDS011;11069;48.988;8.450;2022-10-22T14:42:41;7.20;;;1.50;;
21814;SDS011;11069;48.988;8.450;2022-10-22T14:45:17;3.28;;;1.30;;
21814;SDS011;11069;48.988;8.450;2022-10-22T14:47:45;5.03;;;1.67;;
21814;SDS011;11069;48.988;8.450;2022-10-22T14:50:11;5.30;;;1.30;;
21814;SDS011;11069;48.988;8.450;2022-10-22T14:52:37;2.63;;;1.52;;
21814;SDS011;11069;48.988;8.450;2022-10-22T14:55:03;5.50;;;1.65;;
21814;SDS011;11069;48.988;8.450;2022-10-22T14:57:29;3.72;;;1.45;;
21814;SDS011;11069;48.988;8.450;2022-10-22T14:59:55;2.50;;;1.15;;
21814;SDS011;11069;48.988;8.450;2022-10-22T15:02:21;3.58;;;1.30;;
21814;SDS011;11069;48.988;8.450;2022-10-22T15:04:47;4.63;;;1.42;;
21814;SDS011;11069;48.988;8.450;2022-10-22T15:07:13;4.82;;;1.52;;
21814;SDS011;11069;48.988;8.450;2022-10-22T15:09:39;6.22;;;1.48;;
21814;SDS011;11069;48.988;8.450;2022-10-22T15:12:05;5.97;;;1.52;;
21814;SDS011;11069;48.988;8.450;2022-10-22T15:14:31;3.22;;;1.40;;
21814;SDS011;11069;48.988;8.450;2022-10-22T15:16:57;4.28;;;1.60;;
21814;SDS011;11069;48.988;8.450;2022-10-22T15:19:23;5.13;;;1.70;;
21814;SDS011;11069;48.988;8.450;2022-10-22T15:21:49;4.35;;;2.15;;
21814;SDS011;11069;48.988;8.450;2022-10-22T15:24:15;6.75;;;2.00;;
21814;SDS011;11069;48.988;8.450;2022-10-22T15:26:41;5.88;;;2.00;;
21814;SDS011;11069;48.988;8.450;2022-10-22T15:29:06;7.60;;;1.80;;
21814;SDS011;11069;48.988;8.450;2022-10-22T15:31:48;10.65;;;1.90;;
21814;SDS011;11069;48.988;8.450;2022-10-22T15:34:50;8.60;;;1.77;;
21814;SDS011;11069;48.988;8.450;2022-10-22T15:37:08;8.57;;;1.90;;
21814;SDS011;11069;48.988;8.450;2022-10-22T15:39:39;4.15;;;1.83;;
21814;SDS011;11069;48.988;8.450;2022-10-22T15:42:06;8.60;;;2.47;;
21814;SDS011;11069;48.988;8.450;2022-10-22T15:44:32;6.57;;;1.90;;
21814;SDS011;11069;48.988;8.450;2022-10-22T15:46:57;5.35;;;1.88;;
21814;SDS011;11069;48.988;8.450;2022-10-22T15:49:24;3.40;;;1.45;;
21814;SDS011;11069;48.988;8.450;2022-10-22T15:51:52;6.68;;;2.17;;
21814;SDS011;11069;48.988;8.450;2022-10-22T15:54:19;6.35;;;1.80;;
21814;SDS011;11069;48.988;8.450;2022-10-22T15:56:47;10.07;;;2.10;;
21814;SDS011;11069;48.988;8.450;2022-10-22T15:59:13;4.82;;;1.80;;
21814;SDS011;11069;48.988;8.450;2022-10-22T16:01:40;9.90;;;2.47;;
21814;SDS011;11069;48.988;8.450;2022-10-22T16:04:06;8.43;;;2.00;;
21814;SDS011;11069;48.988;8.450;2022-10-22T16:09:00;9.02;;;2.13;;
21814;SDS011;11069;48.988;8.450;2022-10-22T16:11:28;13.18;;;3.92;;
21814;SDS011;11069;48.988;8.450;2022-10-22T16:13:54;6.50;;;2.88;;
21814;SDS011;11069;48.988;8.450;2022-10-22T16:16:21;9.50;;;3.92;;
21814;SDS011;11069;48.988;8.450;2022-10-22T16:18:48;14.40;;;6.00;;
21814;SDS011;11069;48.988;8.450;2022-10-22T16:21:14;14.65;;;6.60;;
21814;SDS011;11069;48.988;8.450;2022-10-22T16:23:41;11.98;;;5.90;;
21814;SDS011;11069;48.988;8.450;2022-10-22T16:26:07;12.57;;;5.10;;
21814;SDS011;11069;48.988;8.450;2022-10-22T16:28:32;9.88;;;4.60;;
21814;SDS011;11069;48.988;8.450;2022-10-22T16:31:01;8.77;;;5.07;;
21814;SDS011;11069;48.988;8.450;2022-10-22T16:33:29;11.60;;;4.30;;
21814;SDS011;11069;48.988;8.450;2022-10-22T16:35:55;8.75;;;4.15;;
21814;SDS011;11069;48.988;8.450;2022-10-22T16:38:21;12.52;;;4.20;;
21814;SDS011;11069;48.988;8.450;2022-10-22T16:40:46;8.73;;;3.90;;
21814;SDS011;11069;48.988;8.450;2022-10-22T16:43:13;11.35;;;5.38;;